Preview of NWS' New Version of Forecast
This preview is not operational and should not be used for support decisions.

Terminal Aerodrome Forecast (TAF)

Issued by National Weather Service (NWS)

                            
000
FTUS42 KMFL 271427 AAC
TAFMIA
TAF AMD
KMIA 271427Z 2714/2818 13015G25KT P6SM SHRA SCT015 BKN045
      TEMPO 2714/2715 2SM TSRA BKN010CB
     FM271500 16020G35KT P6SM SHRA BKN030 OVC050
     FM280000 15015G25KT P6SM VCSH BKN035 OVC040=